sensor_id;sensor_type;location;lat;lon;timestamp;temperature;humidity
1205;DHT22;592;48.764;9.174;2022-12-18T00:00:40;-7.40;99.90
1205;DHT22;592;48.764;9.174;2022-12-18T00:03:07;-7.30;99.90
1205;DHT22;592;48.764;9.174;2022-12-18T00:05:34;-7.40;99.90
1205;DHT22;592;48.764;9.174;2022-12-18T00:08:02;-7.40;99.90
1205;DHT22;592;48.764;9.174;2022-12-18T00:10:29;-7.30;99.90
1205;DHT22;592;48.764;9.174;2022-12-18T00:12:56;-7.30;99.90
1205;DHT22;592;48.764;9.174;2022-12-18T00:15:23;-7.40;99.90
1205;DHT22;592;48.764;9.174;2022-12-18T00:17:49;-7.40;99.90
1205;DHT22;592;48.764;9.174;2022-12-18T00:20:16;-7.40;99.90
1205;DHT22;592;48.764;9.174;2022-12-18T00:22:47;-7.30;99.90
1205;DHT22;592;48.764;9.174;2022-12-18T00:25:15;-7.30;99.90
1205;DHT22;592;48.764;9.174;2022-12-18T00:27:42;-7.30;99.90
1205;DHT22;592;48.764;9.174;2022-12-18T00:30:09;-7.30;99.90
1205;DHT22;592;48.764;9.174;2022-12-18T00:32:36;-7.30;99.90
1205;DHT22;592;48.764;9.174;2022-12-18T00:35:04;-7.30;99.90
1205;DHT22;592;48.764;9.174;2022-12-18T00:37:33;-7.30;99.90
1205;DHT22;592;48.764;9.174;2022-12-18T00:40:00;-7.40;99.90
1205;DHT22;592;48.764;9.174;2022-12-18T00:42:28;-7.40;99.90
1205;DHT22;592;48.764;9.174;2022-12-18T00:45:13;-7.40;99.90
1205;DHT22;592;48.764;9.174;2022-12-18T00:47:40;-7.40;99.90
1205;DHT22;592;48.764;9.174;2022-12-18T00:50:08;-7.30;99.90
1205;DHT22;592;48.764;9.174;2022-12-18T00:52:35;-7.40;99.90
1205;DHT22;592;48.764;9.174;2022-12-18T00:55:03;-7.40;99.90
1205;DHT22;592;48.764;9.174;2022-12-18T00:57:31;-7.40;99.90
1205;DHT22;592;48.764;9.174;2022-12-18T00:59:58;-7.40;99.90
1205;DHT22;592;48.764;9.174;2022-12-18T01:02:25;-7.40;99.90
1205;DHT22;592;48.764;9.174;2022-12-18T01:04:51;-7.40;99.90
1205;DHT22;592;48.764;9.174;2022-12-18T01:07:18;-7.50;99.90
1205;DHT22;592;48.764;9.174;2022-12-18T01:09:45;-7.60;99.90
1205;DHT22;592;48.764;9.174;2022-12-18T01:12:12;-7.60;99.90
1205;DHT22;592;48.764;9.174;2022-12-18T01:14:40;-7.60;99.90
1205;DHT22;592;48.764;9.174;2022-12-18T01:17:06;-7.60;99.90
1205;DHT22;592;48.764;9.174;2022-12-18T01:19:33;-7.60;99.90
1205;DHT22;592;48.764;9.174;2022-12-18T01:22:00;-7.70;99.90
1205;DHT22;592;48.764;9.174;2022-12-18T01:24:27;-7.70;99.90
1205;DHT22;592;48.764;9.174;2022-12-18T01:26:53;-7.90;99.90
1205;DHT22;592;48.764;9.174;2022-12-18T01:29:22;-7.90;99.90
1205;DHT22;592;48.764;9.174;2022-12-18T01:31:50;-8.00;99.90
1205;DHT22;592;48.764;9.174;2022-12-18T01:34:17;-8.00;99.90
1205;DHT22;592;48.764;9.174;2022-12-18T01:36:44;-8.00;99.90
1205;DHT22;592;48.764;9.174;2022-12-18T01:39:13;-8.00;99.90
1205;DHT22;592;48.764;9.174;2022-12-18T01:41:41;-8.00;99.90
1205;DHT22;592;48.764;9.174;2022-12-18T01:45:04;-8.00;99.90
1205;DHT22;592;48.764;9.174;2022-12-18T01:47:38;-7.90;99.90
1205;DHT22;592;48.764;9.174;2022-12-18T01:50:09;-8.00;99.90
1205;DHT22;592;48.764;9.174;2022-12-18T01:52:37;-8.00;99.90
1205;DHT22;592;48.764;9.174;2022-12-18T01:55:07;-8.00;99.90
1205;DHT22;592;48.764;9.174;2022-12-18T01:57:34;-7.90;99.90
1205;DHT22;592;48.764;9.174;2022-12-18T02:00:05;-7.90;99.90
1205;DHT22;592;48.764;9.174;2022-12-18T02:02:33;-8.00;99.90
1205;DHT22;592;48.764;9.174;2022-12-18T02:05:02;-7.90;99.90
1205;DHT22;592;48.764;9.174;2022-12-18T02:07:35;-7.90;99.90
1205;DHT22;592;48.764;9.174;2022-12-18T02:10:07;-7.90;99.90
1205;DHT22;592;48.764;9.174;2022-12-18T02:12:43;-7.90;99.90
1205;DHT22;592;48.764;9.174;2022-12-18T02:15:16;-8.10;99.90
1205;DHT22;592;48.764;9.174;2022-12-18T02:17:48;-8.10;99.90
1205;DHT22;592;48.764;9.174;2022-12-18T02:20:23;-8.10;99.90
1205;DHT22;592;48.764;9.174;2022-12-18T02:23:05;-8.20;99.90
1205;DHT22;592;48.764;9.174;2022-12-18T02:28:17;-8.30;99.90
1205;DHT22;592;48.764;9.174;2022-12-18T02:30:48;-8.40;99.90
1205;DHT22;592;48.764;9.174;2022-12-18T02:33:17;-8.40;99.90
1205;DHT22;592;48.764;9.174;2022-12-18T02:35:46;-8.40;99.90
1205;DHT22;592;48.764;9.174;2022-12-18T02:38:14;-8.40;99.90
1205;DHT22;592;48.764;9.174;2022-12-18T02:40:42;-8.40;99.90
1205;DHT22;592;48.764;9.174;2022-12-18T02:43:10;-8.30;99.90
1205;DHT22;592;48.764;9.174;2022-12-18T02:45:46;-8.20;99.90
1205;DHT22;592;48.764;9.174;2022-12-18T02:48:14;-8.10;99.90
1205;DHT22;592;48.764;9.174;2022-12-18T02:50:44;-8.00;99.90
1205;DHT22;592;48.764;9.174;2022-12-18T02:53:17;-7.90;99.90
1205;DHT22;592;48.764;9.174;2022-12-18T02:55:56;-7.90;99.90
1205;DHT22;592;48.764;9.174;2022-12-18T02:58:30;-7.80;99.90
1205;DHT22;592;48.764;9.174;2022-12-18T03:01:03;-7.60;99.90
1205;DHT22;592;48.764;9.174;2022-12-18T03:03:37;-7.60;99.90
1205;DHT22;592;48.764;9.174;2022-12-18T03:06:08;-7.50;99.90
1205;DHT22;592;48.764;9.174;2022-12-18T03:08:39;-7.40;99.90
1205;DHT22;592;48.764;9.174;2022-12-18T03:11:08;-7.40;99.90
1205;DHT22;592;48.764;9.174;2022-12-18T03:13:38;-7.40;99.90
1205;DHT22;592;48.764;9.174;2022-12-18T03:16:19;-7.30;99.90
1205;DHT22;592;48.764;9.174;2022-12-18T03:18:50;-7.40;99.90
1205;DHT22;592;48.764;9.174;2022-12-18T03:21:21;-7.40;99.90
1205;DHT22;592;48.764;9.174;2022-12-18T03:23:51;-7.50;99.90
1205;DHT22;592;48.764;9.174;2022-12-18T03:26:21;-7.60;99.90
1205;DHT22;592;48.764;9.174;2022-12-18T03:28:51;-7.50;99.90
1205;DHT22;592;48.764;9.174;2022-12-18T03:31:23;-7.60;99.90
1205;DHT22;592;48.764;9.174;2022-12-18T03:33:52;-7.50;99.90
1205;DHT22;592;48.764;9.174;2022-12-18T03:36:19;-7.50;99.90
1205;DHT22;592;48.764;9.174;2022-12-18T03:38:46;-7.50;99.90
1205;DHT22;592;48.764;9.174;2022-12-18T03:41:18;-7.50;99.90
1205;DHT22;592;48.764;9.174;2022-12-18T03:43:49;-7.50;99.90
1205;DHT22;592;48.764;9.174;2022-12-18T03:46:25;-7.40;99.90
1205;DHT22;592;48.764;9.174;2022-12-18T03:48:59;-7.40;99.90
1205;DHT22;592;48.764;9.174;2022-12-18T03:51:33;-7.40;99.90
1205;DHT22;592;48.764;9.174;2022-12-18T03:54:03;-7.40;99.90
1205;DHT22;592;48.764;9.174;2022-12-18T03:56:35;-7.50;99.90
1205;DHT22;592;48.764;9.174;2022-12-18T03:59:05;-7.50;99.90
1205;DHT22;592;48.764;9.174;2022-12-18T04:01:37;-7.60;99.90
1205;DHT22;592;48.764;9.174;2022-12-18T04:04:05;-7.50;99.90
1205;DHT22;592;48.764;9.174;2022-12-18T04:06:33;-7.50;99.90
1205;DHT22;592;48.764;9.174;2022-12-18T04:09:01;-7.50;99.90
1205;DHT22;592;48.764;9.174;2022-12-18T04:11:28;-7.50;99.90
1205;DHT22;592;48.764;9.174;2022-12-18T04:13:56;-7.50;99.90
1205;DHT22;592;48.764;9.174;2022-12-18T04:16:23;-7.50;99.90
1205;DHT22;592;48.764;9.174;2022-12-18T04:18:52;-7.50;99.90
1205;DHT22;592;48.764;9.174;2022-12-18T04:21:19;-7.50;99.90
1205;DHT22;592;48.764;9.174;2022-12-18T04:23:46;-7.50;99.90
1205;DHT22;592;48.764;9.174;2022-12-18T04:26:12;-7.60;99.90
1205;DHT22;592;48.764;9.174;2022-12-18T04:28:39;-7.60;99.90
1205;DHT22;592;48.764;9.174;2022-12-18T04:31:06;-7.60;99.90
1205;DHT22;592;48.764;9.174;2022-12-18T04:33:33;-7.70;99.90
1205;DHT22;592;48.764;9.174;2022-12-18T04:36:01;-7.80;99.90
1205;DHT22;592;48.764;9.174;2022-12-18T04:38:28;-7.80;99.90
1205;DHT22;592;48.764;9.174;2022-12-18T04:40:54;-7.80;99.90
1205;DHT22;592;48.764;9.174;2022-12-18T04:43:21;-7.80;99.90
1205;DHT22;592;48.764;9.174;2022-12-18T04:45:48;-7.80;99.90
1205;DHT22;592;48.764;9.174;2022-12-18T04:48:15;-7.80;99.90
1205;DHT22;592;48.764;9.174;2022-12-18T04:50:42;-7.70;99.90
1205;DHT22;592;48.764;9.174;2022-12-18T04:53:10;-7.80;99.90
1205;DHT22;592;48.764;9.174;2022-12-18T04:55:36;-7.70;99.90
1205;DHT22;592;48.764;9.174;2022-12-18T04:58:03;-7.80;99.90
1205;DHT22;592;48.764;9.174;2022-12-18T05:00:30;-7.80;99.90
1205;DHT22;592;48.764;9.174;2022-12-18T05:02:57;-7.90;99.90
1205;DHT22;592;48.764;9.174;2022-12-18T05:05:23;-8.00;99.90
1205;DHT22;592;48.764;9.174;2022-12-18T05:07:50;-8.30;99.90
1205;DHT22;592;48.764;9.174;2022-12-18T05:10:18;-8.60;99.90
1205;DHT22;592;48.764;9.174;2022-12-18T05:12:45;-8.70;99.90
1205;DHT22;592;48.764;9.174;2022-12-18T05:15:34;-8.70;99.90
1205;DHT22;592;48.764;9.174;2022-12-18T05:18:02;-8.70;99.90
1205;DHT22;592;48.764;9.174;2022-12-18T05:20:30;-8.60;99.90
1205;DHT22;592;48.764;9.174;2022-12-18T05:22:57;-8.60;99.90
1205;DHT22;592;48.764;9.174;2022-12-18T05:25:25;-8.60;99.90
1205;DHT22;592;48.764;9.174;2022-12-18T05:27:52;-8.50;99.90
1205;DHT22;592;48.764;9.174;2022-12-18T05:30:19;-8.60;99.90
1205;DHT22;592;48.764;9.174;2022-12-18T05:32:46;-8.60;99.90
1205;DHT22;592;48.764;9.174;2022-12-18T05:35:13;-8.50;99.90
1205;DHT22;592;48.764;9.174;2022-12-18T05:37:39;-8.50;99.90
1205;DHT22;592;48.764;9.174;2022-12-18T05:40:07;-8.50;99.90
1205;DHT22;592;48.764;9.174;2022-12-18T05:42:36;-8.50;99.90
1205;DHT22;592;48.764;9.174;2022-12-18T05:45:03;-8.40;99.90
1205;DHT22;592;48.764;9.174;2022-12-18T05:47:30;-8.40;99.90
1205;DHT22;592;48.764;9.174;2022-12-18T05:49:57;-8.40;99.90
1205;DHT22;592;48.764;9.174;2022-12-18T05:52:24;-8.40;99.90
1205;DHT22;592;48.764;9.174;2022-12-18T05:54:51;-8.40;99.90
1205;DHT22;592;48.764;9.174;2022-12-18T05:57:17;-8.40;99.90
1205;DHT22;592;48.764;9.174;2022-12-18T05:59:46;-8.50;99.90
1205;DHT22;592;48.764;9.174;2022-12-18T06:02:12;-8.40;99.90
1205;DHT22;592;48.764;9.174;2022-12-18T06:04:39;-8.40;99.90
1205;DHT22;592;48.764;9.174;2022-12-18T06:07:06;-8.40;99.90
1205;DHT22;592;48.764;9.174;2022-12-18T06:09:32;-8.50;99.90
1205;DHT22;592;48.764;9.174;2022-12-18T06:11:59;-8.60;99.90
1205;DHT22;592;48.764;9.174;2022-12-18T06:14:26;-8.50;99.90
1205;DHT22;592;48.764;9.174;2022-12-18T06:16:55;-8.60;99.90
1205;DHT22;592;48.764;9.174;2022-12-18T06:19:22;-8.60;99.90
1205;DHT22;592;48.764;9.174;2022-12-18T06:21:48;-8.60;99.90
1205;DHT22;592;48.764;9.174;2022-12-18T06:24:15;-8.60;99.90
1205;DHT22;592;48.764;9.174;2022-12-18T06:26:42;-8.60;99.90
1205;DHT22;592;48.764;9.174;2022-12-18T06:29:09;-8.90;99.90
1205;DHT22;592;48.764;9.174;2022-12-18T06:31:35;-9.20;99.90
1205;DHT22;592;48.764;9.174;2022-12-18T06:34:04;-9.40;99.90
1205;DHT22;592;48.764;9.174;2022-12-18T06:36:31;-9.20;99.90
1205;DHT22;592;48.764;9.174;2022-12-18T06:38:58;-9.10;99.90
1205;DHT22;592;48.764;9.174;2022-12-18T06:41:25;-9.00;99.90
1205;DHT22;592;48.764;9.174;2022-12-18T06:43:52;-9.00;99.90
1205;DHT22;592;48.764;9.174;2022-12-18T06:46:19;-8.90;99.90
1205;DHT22;592;48.764;9.174;2022-12-18T06:48:47;-9.00;99.90
1205;DHT22;592;48.764;9.174;2022-12-18T06:51:18;-9.00;99.90
1205;DHT22;592;48.764;9.174;2022-12-18T06:53:45;-8.90;99.90
1205;DHT22;592;48.764;9.174;2022-12-18T06:56:12;-8.90;99.90
1205;DHT22;592;48.764;9.174;2022-12-18T06:58:39;-8.90;99.90
1205;DHT22;592;48.764;9.174;2022-12-18T07:01:08;-8.90;99.90
1205;DHT22;592;48.764;9.174;2022-12-18T07:03:35;-8.90;99.90
1205;DHT22;592;48.764;9.174;2022-12-18T07:06:02;-8.90;99.90
1205;DHT22;592;48.764;9.174;2022-12-18T07:08:31;-8.90;99.90
1205;DHT22;592;48.764;9.174;2022-12-18T07:10:59;-8.90;99.90
1205;DHT22;592;48.764;9.174;2022-12-18T07:13:25;-8.90;99.90
1205;DHT22;592;48.764;9.174;2022-12-18T07:15:52;-8.90;99.90
1205;DHT22;592;48.764;9.174;2022-12-18T07:18:19;-8.90;99.90
1205;DHT22;592;48.764;9.174;2022-12-18T07:20:46;-8.90;99.90
1205;DHT22;592;48.764;9.174;2022-12-18T07:23:12;-8.80;99.90
1205;DHT22;592;48.764;9.174;2022-12-18T07:25:40;-8.80;99.90
1205;DHT22;592;48.764;9.174;2022-12-18T07:28:07;-8.80;99.90
1205;DHT22;592;48.764;9.174;2022-12-18T07:30:36;-8.80;99.90
1205;DHT22;592;48.764;9.174;2022-12-18T07:33:03;-8.80;99.90
1205;DHT22;592;48.764;9.174;2022-12-18T07:35:30;-8.80;99.90
1205;DHT22;592;48.764;9.174;2022-12-18T07:37:57;-8.80;99.90
1205;DHT22;592;48.764;9.174;2022-12-18T07:40:26;-8.80;99.90
1205;DHT22;592;48.764;9.174;2022-12-18T07:42:54;-8.80;99.90
1205;DHT22;592;48.764;9.174;2022-12-18T07:45:20;-8.70;99.90
1205;DHT22;592;48.764;9.174;2022-12-18T07:47:47;-8.80;99.90
1205;DHT22;592;48.764;9.174;2022-12-18T07:50:14;-9.20;99.90
1205;DHT22;592;48.764;9.174;2022-12-18T07:52:41;-9.10;99.90
1205;DHT22;592;48.764;9.174;2022-12-18T07:55:08;-9.00;99.90
1205;DHT22;592;48.764;9.174;2022-12-18T07:57:35;-8.90;99.90
1205;DHT22;592;48.764;9.174;2022-12-18T08:00:03;-8.90;99.90
1205;DHT22;592;48.764;9.174;2022-12-18T08:02:30;-8.80;99.90
1205;DHT22;592;48.764;9.174;2022-12-18T08:04:57;-8.70;99.90
1205;DHT22;592;48.764;9.174;2022-12-18T08:07:24;-8.70;99.90
1205;DHT22;592;48.764;9.174;2022-12-18T08:09:51;-8.70;99.90
1205;DHT22;592;48.764;9.174;2022-12-18T08:12:18;-8.80;99.90
1205;DHT22;592;48.764;9.174;2022-12-18T08:14:45;-8.80;99.90
1205;DHT22;592;48.764;9.174;2022-12-18T08:17:13;-8.70;99.90
1205;DHT22;592;48.764;9.174;2022-12-18T08:19:40;-8.60;99.90
1205;DHT22;592;48.764;9.174;2022-12-18T08:22:06;-8.50;99.90
1205;DHT22;592;48.764;9.174;2022-12-18T08:24:33;-8.50;99.90
1205;DHT22;592;48.764;9.174;2022-12-18T08:27:00;-8.40;99.90
1205;DHT22;592;48.764;9.174;2022-12-18T08:29:26;-8.40;99.90
1205;DHT22;592;48.764;9.174;2022-12-18T08:31:53;-8.30;99.90
1205;DHT22;592;48.764;9.174;2022-12-18T08:34:21;-8.30;99.90
1205;DHT22;592;48.764;9.174;2022-12-18T08:36:48;-8.30;99.90
1205;DHT22;592;48.764;9.174;2022-12-18T08:39:15;-8.20;99.90
1205;DHT22;592;48.764;9.174;2022-12-18T08:41:41;-8.20;99.90
1205;DHT22;592;48.764;9.174;2022-12-18T08:44:28;-8.10;99.90
1205;DHT22;592;48.764;9.174;2022-12-18T08:47:03;-8.00;99.90
1205;DHT22;592;48.764;9.174;2022-12-18T08:49:32;-8.00;99.90
1205;DHT22;592;48.764;9.174;2022-12-18T08:51:58;-7.90;99.90
1205;DHT22;592;48.764;9.174;2022-12-18T08:54:26;-7.80;99.90
1205;DHT22;592;48.764;9.174;2022-12-18T08:56:53;-7.80;99.90
1205;DHT22;592;48.764;9.174;2022-12-18T08:59:19;-7.70;99.90
1205;DHT22;592;48.764;9.174;2022-12-18T09:01:47;-7.70;99.90
1205;DHT22;592;48.764;9.174;2022-12-18T09:04:14;-7.60;99.90
1205;DHT22;592;48.764;9.174;2022-12-18T09:06:42;-7.50;99.90
1205;DHT22;592;48.764;9.174;2022-12-18T09:09:09;-7.40;99.90
1205;DHT22;592;48.764;9.174;2022-12-18T09:11:36;-7.40;99.90
1205;DHT22;592;48.764;9.174;2022-12-18T09:14:03;-7.40;99.90
1205;DHT22;592;48.764;9.174;2022-12-18T09:16:31;-7.20;99.90
1205;DHT22;592;48.764;9.174;2022-12-18T09:19:02;-7.10;99.90
1205;DHT22;592;48.764;9.174;2022-12-18T09:21:31;-7.00;99.90
1205;DHT22;592;48.764;9.174;2022-12-18T09:24:00;-6.90;99.90
1205;DHT22;592;48.764;9.174;2022-12-18T09:26:27;-6.80;99.90
1205;DHT22;592;48.764;9.174;2022-12-18T09:28:54;-6.70;99.90
1205;DHT22;592;48.764;9.174;2022-12-18T09:31:23;-6.70;99.90
1205;DHT22;592;48.764;9.174;2022-12-18T09:33:50;-6.60;99.90
1205;DHT22;592;48.764;9.174;2022-12-18T09:36:18;-6.50;99.90
1205;DHT22;592;48.764;9.174;2022-12-18T09:38:45;-6.40;99.90
1205;DHT22;592;48.764;9.174;2022-12-18T09:41:28;-6.40;99.90
1205;DHT22;592;48.764;9.174;2022-12-18T09:44:03;-6.30;99.90
1205;DHT22;592;48.764;9.174;2022-12-18T09:46:36;-6.20;99.90
1205;DHT22;592;48.764;9.174;2022-12-18T09:49:07;-6.10;99.90
1205;DHT22;592;48.764;9.174;2022-12-18T09:51:39;-6.00;99.90
1205;DHT22;592;48.764;9.174;2022-12-18T09:54:14;-6.00;99.90
1205;DHT22;592;48.764;9.174;2022-12-18T09:56:43;-5.90;99.90
1205;DHT22;592;48.764;9.174;2022-12-18T09:59:20;-5.80;99.90
1205;DHT22;592;48.764;9.174;2022-12-18T10:01:47;-5.80;99.90
1205;DHT22;592;48.764;9.174;2022-12-18T10:04:14;-5.80;99.90
1205;DHT22;592;48.764;9.174;2022-12-18T10:06:46;-5.70;99.90
1205;DHT22;592;48.764;9.174;2022-12-18T10:09:22;-5.60;99.90
1205;DHT22;592;48.764;9.174;2022-12-18T10:11:59;-5.60;99.90
1205;DHT22;592;48.764;9.174;2022-12-18T10:14:32;-5.40;99.90
1205;DHT22;592;48.764;9.174;2022-12-18T10:17:06;-5.30;99.90
1205;DHT22;592;48.764;9.174;2022-12-18T10:19:40;-5.20;99.90
1205;DHT22;592;48.764;9.174;2022-12-18T10:22:21;-5.20;99.90
1205;DHT22;592;48.764;9.174;2022-12-18T10:24:58;-5.10;99.90
1205;DHT22;592;48.764;9.174;2022-12-18T10:27:28;-5.00;99.90
1205;DHT22;592;48.764;9.174;2022-12-18T10:29:56;-4.90;99.90
1205;DHT22;592;48.764;9.174;2022-12-18T10:32:26;-4.80;99.90
1205;DHT22;592;48.764;9.174;2022-12-18T10:34:54;-4.70;99.90
1205;DHT22;592;48.764;9.174;2022-12-18T10:37:24;-4.50;99.90
1205;DHT22;592;48.764;9.174;2022-12-18T10:40:07;-4.40;99.90
1205;DHT22;592;48.764;9.174;2022-12-18T10:42:36;-4.30;99.90
1205;DHT22;592;48.764;9.174;2022-12-18T10:45:07;-4.20;99.90
1205;DHT22;592;48.764;9.174;2022-12-18T10:47:35;-4.10;99.90
1205;DHT22;592;48.764;9.174;2022-12-18T10:50:02;-4.10;99.90
1205;DHT22;592;48.764;9.174;2022-12-18T10:52:30;-4.00;99.90
1205;DHT22;592;48.764;9.174;2022-12-18T10:54:59;-3.90;99.90
1205;DHT22;592;48.764;9.174;2022-12-18T10:57:34;-3.80;99.90
1205;DHT22;592;48.764;9.174;2022-12-18T11:00:24;-3.80;99.90
1205;DHT22;592;48.764;9.174;2022-12-18T11:02:51;-3.60;99.90
1205;DHT22;592;48.764;9.174;2022-12-18T11:05:27;-3.50;99.90
1205;DHT22;592;48.764;9.174;2022-12-18T11:07:55;-3.40;99.90
1205;DHT22;592;48.764;9.174;2022-12-18T11:10:25;-3.30;99.90
1205;DHT22;592;48.764;9.174;2022-12-18T11:12:52;-3.30;99.90
1205;DHT22;592;48.764;9.174;2022-12-18T11:15:24;-3.10;99.90
1205;DHT22;592;48.764;9.174;2022-12-18T11:17:52;-3.00;99.90
1205;DHT22;592;48.764;9.174;2022-12-18T11:20:27;-3.00;99.90
1205;DHT22;592;48.764;9.174;2022-12-18T11:22:58;-2.80;99.90
1205;DHT22;592;48.764;9.174;2022-12-18T11:25:26;-2.80;99.90
1205;DHT22;592;48.764;9.174;2022-12-18T11:27:58;-2.80;99.90
1205;DHT22;592;48.764;9.174;2022-12-18T11:30:29;-2.70;99.90
1205;DHT22;592;48.764;9.174;2022-12-18T11:32:59;-2.80;99.90
1205;DHT22;592;48.764;9.174;2022-12-18T11:35:36;-2.70;99.90
1205;DHT22;592;48.764;9.174;2022-12-18T11:38:10;-2.70;99.90
1205;DHT22;592;48.764;9.174;2022-12-18T11:40:43;-2.70;99.90
1205;DHT22;592;48.764;9.174;2022-12-18T11:43:15;-2.80;99.90
1205;DHT22;592;48.764;9.174;2022-12-18T11:45:49;-2.70;99.90
1205;DHT22;592;48.764;9.174;2022-12-18T11:48:21;-2.60;99.90
1205;DHT22;592;48.764;9.174;2022-12-18T11:50:50;-2.50;99.90
1205;DHT22;592;48.764;9.174;2022-12-18T11:53:18;-2.60;99.90
1205;DHT22;592;48.764;9.174;2022-12-18T11:55:52;-2.60;99.90
1205;DHT22;592;48.764;9.174;2022-12-18T11:58:32;-2.40;99.90
1205;DHT22;592;48.764;9.174;2022-12-18T12:01:12;-2.40;99.90
1205;DHT22;592;48.764;9.174;2022-12-18T12:04:03;-2.30;99.90
1205;DHT22;592;48.764;9.174;2022-12-18T12:06:40;-2.20;99.90
1205;DHT22;592;48.764;9.174;2022-12-18T12:09:16;-2.20;99.90
1205;DHT22;592;48.764;9.174;2022-12-18T12:11:53;-2.10;99.90
1205;DHT22;592;48.764;9.174;2022-12-18T12:14:43;-2.10;99.90
1205;DHT22;592;48.764;9.174;2022-12-18T12:17:20;-2.10;99.90
1205;DHT22;592;48.764;9.174;2022-12-18T12:19:56;-2.10;99.90
1205;DHT22;592;48.764;9.174;2022-12-18T12:22:32;-2.00;99.90
1205;DHT22;592;48.764;9.174;2022-12-18T12:25:18;-2.10;99.90
1205;DHT22;592;48.764;9.174;2022-12-18T12:27:51;-2.10;99.90
1205;DHT22;592;48.764;9.174;2022-12-18T12:30:21;-2.10;99.90
1205;DHT22;592;48.764;9.174;2022-12-18T12:33:10;-2.00;99.90
1205;DHT22;592;48.764;9.174;2022-12-18T12:35:46;-2.00;99.90
1205;DHT22;592;48.764;9.174;2022-12-18T12:38:17;-1.90;99.90
1205;DHT22;592;48.764;9.174;2022-12-18T12:40:47;-1.80;99.90
1205;DHT22;592;48.764;9.174;2022-12-18T12:43:22;-1.80;99.90
1205;DHT22;592;48.764;9.174;2022-12-18T12:45:53;-1.80;99.90
1205;DHT22;592;48.764;9.174;2022-12-18T12:48:35;-1.70;99.90
1205;DHT22;592;48.764;9.174;2022-12-18T12:51:06;-1.70;99.90
1205;DHT22;592;48.764;9.174;2022-12-18T12:53:37;-1.70;99.90
1205;DHT22;592;48.764;9.174;2022-12-18T12:56:04;-1.70;99.90
1205;DHT22;592;48.764;9.174;2022-12-18T12:58:38;-1.60;99.90
1205;DHT22;592;48.764;9.174;2022-12-18T13:01:12;-1.60;99.90
1205;DHT22;592;48.764;9.174;2022-12-18T13:03:48;-1.60;99.90
1205;DHT22;592;48.764;9.174;2022-12-18T13:06:25;-1.60;99.90
1205;DHT22;592;48.764;9.174;2022-12-18T13:08:57;-1.50;99.90
1205;DHT22;592;48.764;9.174;2022-12-18T13:11:34;-1.50;99.90
1205;DHT22;592;48.764;9.174;2022-12-18T13:14:37;-1.70;99.90
1205;DHT22;592;48.764;9.174;2022-12-18T13:17:29;-1.70;99.90
1205;DHT22;592;48.764;9.174;2022-12-18T13:20:18;-1.80;99.90
1205;DHT22;592;48.764;9.174;2022-12-18T13:22:46;-1.90;99.90
1205;DHT22;592;48.764;9.174;2022-12-18T13:25:31;-2.00;99.90
1205;DHT22;592;48.764;9.174;2022-12-18T13:28:08;-1.90;99.90
1205;DHT22;592;48.764;9.174;2022-12-18T13:30:49;-1.90;99.90
1205;DHT22;592;48.764;9.174;2022-12-18T13:33:47;-2.00;99.90
1205;DHT22;592;48.764;9.174;2022-12-18T13:36:34;-1.80;99.90
1205;DHT22;592;48.764;9.174;2022-12-18T13:39:34;-1.80;99.90
1205;DHT22;592;48.764;9.174;2022-12-18T13:42:38;-1.70;99.90
1205;DHT22;592;48.764;9.174;2022-12-18T13:45:40;-1.70;99.90
1205;DHT22;592;48.764;9.174;2022-12-18T13:48:18;-1.70;99.90
1205;DHT22;592;48.764;9.174;2022-12-18T13:50:49;-1.70;99.90
1205;DHT22;592;48.764;9.174;2022-12-18T13:53:21;-1.70;99.90
1205;DHT22;592;48.764;9.174;2022-12-18T13:55:49;-1.60;99.90
1205;DHT22;592;48.764;9.174;2022-12-18T13:58:16;-1.60;99.90
1205;DHT22;592;48.764;9.174;2022-12-18T14:00:44;-1.60;99.90
1205;DHT22;592;48.764;9.174;2022-12-18T14:03:19;-1.50;99.90
1205;DHT22;592;48.764;9.174;2022-12-18T14:05:53;-1.50;99.90
1205;DHT22;592;48.764;9.174;2022-12-18T14:08:23;-1.50;99.90
1205;DHT22;592;48.764;9.174;2022-12-18T14:10:51;-1.50;99.90
1205;DHT22;592;48.764;9.174;2022-12-18T14:13:23;-1.40;99.90
1205;DHT22;592;48.764;9.174;2022-12-18T14:15:51;-1.50;99.90
1205;DHT22;592;48.764;9.174;2022-12-18T14:18:21;-1.50;99.90
1205;DHT22;592;48.764;9.174;2022-12-18T14:20:49;-1.50;99.90
1205;DHT22;592;48.764;9.174;2022-12-18T14:23:32;-1.50;99.90
1205;DHT22;592;48.764;9.174;2022-12-18T14:26:00;-1.40;99.90
1205;DHT22;592;48.764;9.174;2022-12-18T14:28:27;-1.50;99.90
1205;DHT22;592;48.764;9.174;2022-12-18T14:30:54;-1.50;99.90
1205;DHT22;592;48.764;9.174;2022-12-18T14:33:23;-1.50;99.90
1205;DHT22;592;48.764;9.174;2022-12-18T14:35:56;-1.50;99.90
1205;DHT22;592;48.764;9.174;2022-12-18T14:38:28;-1.60;99.90
1205;DHT22;592;48.764;9.174;2022-12-18T14:40:57;-1.60;99.90
1205;DHT22;592;48.764;9.174;2022-12-18T14:43:25;-1.60;99.90
1205;DHT22;592;48.764;9.174;2022-12-18T14:45:52;-1.70;99.90
1205;DHT22;592;48.764;9.174;2022-12-18T14:48:21;-1.70;99.90
1205;DHT22;592;48.764;9.174;2022-12-18T14:50:56;-1.80;99.90
1205;DHT22;592;48.764;9.174;2022-12-18T14:53:34;-1.80;99.90
1205;DHT22;592;48.764;9.174;2022-12-18T14:56:10;-1.80;99.90
1205;DHT22;592;48.764;9.174;2022-12-18T14:58:45;-1.90;99.90
1205;DHT22;592;48.764;9.174;2022-12-18T15:01:18;-1.90;99.90
1205;DHT22;592;48.764;9.174;2022-12-18T15:03:45;-2.00;99.90
1205;DHT22;592;48.764;9.174;2022-12-18T15:06:16;-2.00;99.90
1205;DHT22;592;48.764;9.174;2022-12-18T15:08:43;-2.00;99.90
1205;DHT22;592;48.764;9.174;2022-12-18T15:11:28;-2.10;99.90
1205;DHT22;592;48.764;9.174;2022-12-18T15:13:57;-2.20;99.90
1205;DHT22;592;48.764;9.174;2022-12-18T15:16:23;-2.20;99.90
1205;DHT22;592;48.764;9.174;2022-12-18T15:18:50;-2.20;99.90
1205;DHT22;592;48.764;9.174;2022-12-18T15:21:19;-2.30;99.90
1205;DHT22;592;48.764;9.174;2022-12-18T15:23:48;-2.30;99.90
1205;DHT22;592;48.764;9.174;2022-12-18T15:26:17;-2.40;99.90
1205;DHT22;592;48.764;9.174;2022-12-18T15:28:48;-2.40;99.90
1205;DHT22;592;48.764;9.174;2022-12-18T15:31:30;-2.40;99.90
1205;DHT22;592;48.764;9.174;2022-12-18T15:34:09;-2.50;99.90
1205;DHT22;592;48.764;9.174;2022-12-18T15:36:37;-2.50;99.90
1205;DHT22;592;48.764;9.174;2022-12-18T15:39:04;-2.50;99.90
1205;DHT22;592;48.764;9.174;2022-12-18T15:41:32;-2.60;99.90
1205;DHT22;592;48.764;9.174;2022-12-18T15:44:01;-2.70;99.90
1205;DHT22;592;48.764;9.174;2022-12-18T15:46:27;-2.80;99.90
1205;DHT22;592;48.764;9.174;2022-12-18T15:48:55;-2.80;99.90
1205;DHT22;592;48.764;9.174;2022-12-18T15:51:25;-2.90;99.90
1205;DHT22;592;48.764;9.174;2022-12-18T15:53:54;-3.00;99.90
1205;DHT22;592;48.764;9.174;2022-12-18T15:56:22;-3.10;99.90
1205;DHT22;592;48.764;9.174;2022-12-18T15:59:11;-3.10;99.90
1205;DHT22;592;48.764;9.174;2022-12-18T16:01:39;-3.10;99.90
1205;DHT22;592;48.764;9.174;2022-12-18T16:04:06;-3.20;99.90
1205;DHT22;592;48.764;9.174;2022-12-18T16:06:32;-3.30;99.90
1205;DHT22;592;48.764;9.174;2022-12-18T16:08:59;-3.30;99.90
1205;DHT22;592;48.764;9.174;2022-12-18T16:11:27;-3.30;99.90
1205;DHT22;592;48.764;9.174;2022-12-18T16:14:16;-3.50;99.90
1205;DHT22;592;48.764;9.174;2022-12-18T16:16:43;-3.50;99.90
1205;DHT22;592;48.764;9.174;2022-12-18T16:19:10;-3.50;99.90
1205;DHT22;592;48.764;9.174;2022-12-18T16:21:37;-3.40;99.90
1205;DHT22;592;48.764;9.174;2022-12-18T16:24:04;-3.40;99.90
1205;DHT22;592;48.764;9.174;2022-12-18T16:26:31;-3.30;99.90
1205;DHT22;592;48.764;9.174;2022-12-18T16:28:58;-3.30;99.90
1205;DHT22;592;48.764;9.174;2022-12-18T16:31:26;-3.20;99.90
1205;DHT22;592;48.764;9.174;2022-12-18T16:34:12;-3.30;99.90
1205;DHT22;592;48.764;9.174;2022-12-18T16:36:39;-3.30;99.90
1205;DHT22;592;48.764;9.174;2022-12-18T16:39:06;-3.50;99.90
1205;DHT22;592;48.764;9.174;2022-12-18T16:41:33;-3.50;99.90